Portland International Airport
KPDX : now visible

Airfield :











YOU CAN JOIN US ON...

 
LOGIN :

Register | Disclaimer

   EN    FR    IT 

 









Legend :    VFR   Marginal VFR   IFR   Intensive IFR   Very Intensive IFR
Visi :
Ceiling :
>= 8 km
>= 3000ft
5 to 8 km
1000 to 3000 ft
1500m to 5 km
500 to 1000 ft
800 to 1500m
200 to 500 ft
< 800m
< 200 ft
Symbols :   Thunderstorms  Fog  Heavy snow  Heavy precipitations  Wind > 20 kt







- Airport Elevation : 31 ft
- IATA code : PDX


KPDX - Portland International

CURRENT METAR :
  • 261053Z 34004KT 10SM BKN019 OVC025 11/08 A2982 RMK AO2 SLP097 T01060083 $

EXPIRED METARs :
  • 260953Z 36005KT 10SM FEW012 BKN021 OVC030 11/08 A2983 RMK AO2 SLP101 T01060083 $
  • 260853Z 35006KT 10SM BKN019 OVC030 11/08 A2984 RMK AO2 SLP104 T01060083 58006 $

TAF KPDX
Valid from the 26 at 09:00 until the 27 at 06:00 UTC


260904Z 2609/2706 34004KT P6SM BKN015 OVC025
FM261700 31005KT P6SM SCT015 SCT035
FM261900 34008KT P6SM SCT040
FM262100 02008KT P6SM VCSH SCT045 BKN120
FM270300 VRB05KT P6SM SCT060
KZSE FIR / North America



MET'MAP, your aeronautical weather chart ! - Copyright ORBIFLY December 2007 - Disclaimer

ORBIFLY MET'MAP TEAM :

Programming & Development : Alexandra Zaïnal
Concept & Development : Baudouin d'Aumeries
Co-Development & Prog : Marc-Olivier Méhu
Technical & hardware support : Manuel Goepfert

Contact : metmap@orbifly.com




SOURCES & CREDITS :

   NOAA       Earth
Advisory